Time;durP1;ratioP1;P1;durP2;ratioP2;P2;SDS_P1;SDS_P2;PMS_P1;PMS_P2;Temp;Humidity;BMP_temperature;BMP_pressure;BME280_temperature;BME280_humidity;BME280_pressure;Samples;Min_cycle;Max_cycle;Signal;HPM_P1;HPM_P2
2023/04/10 00:00:01;;;;;;;11.67;7.37;;;;;;;;;;5072359;28;20201;-33
2023/04/10 00:02:28;;;;;;;10.37;7.17;;;;;;;;;;5060641;28;20198;-29
2023/04/10 00:04:56;;;;;;;9.40;6.80;;;;;;;;;;5058372;28;20210;-34
2023/04/10 00:07:23;;;;;;;9.67;7.17;;;;;;;;;;5052303;28;20647;-33
2023/04/10 00:09:50;;;;;;;8.87;7.00;;;;;;;;;;5053857;28;20201;-31
2023/04/10 00:12:19;;;;;;;10.40;7.00;;;;;;;;;;5061588;28;20228;-30
2023/04/10 00:14:49;;;;;;;9.30;6.70;;;;;;;;;;5072045;28;20216;-31
2023/04/10 00:17:16;;;;;;;11.77;8.60;;;;;;;;;;5052623;28;20200;-34
2023/04/10 00:19:43;;;;;;;7.80;6.40;;;;;;;;;;5062376;28;20205;-32
2023/04/10 00:22:11;;;;;;;9.90;7.37;;;;;;;;;;5072261;28;20205;-31
2023/04/10 00:24:38;;;;;;;9.57;7.93;;;;;;;;;;5065392;28;20225;-30
2023/04/10 00:27:05;;;;;;;11.10;7.40;;;;;;;;;;5054965;28;20213;-33
2023/04/10 00:29:33;;;;;;;9.87;6.77;;;;;;;;;;5069803;28;20276;-31
2023/04/10 00:32:00;;;;;;;10.17;7.57;;;;;;;;;;5062916;28;20223;-33
2023/04/10 00:34:28;;;;;;;9.80;7.40;;;;;;;;;;5063642;28;20227;-33
2023/04/10 00:36:55;;;;;;;9.07;6.80;;;;;;;;;;5051689;28;20201;-30
2023/04/10 00:39:22;;;;;;;9.10;6.50;;;;;;;;;;5049304;28;20514;-32
2023/04/10 00:41:49;;;;;;;9.77;6.97;;;;;;;;;;5058342;28;20205;-32
2023/04/10 00:44:16;;;;;;;9.90;6.80;;;;;;;;;;5066766;28;20576;-32
2023/04/10 00:46:45;;;;;;;10.03;7.37;;;;;;;;;;5060671;28;20205;-34
2023/04/10 00:49:12;;;;;;;8.90;7.10;;;;;;;;;;5065504;28;20209;-30
2023/04/10 00:51:40;;;;;;;9.63;7.10;;;;;;;;;;5055247;28;20217;-33
2023/04/10 00:54:09;;;;;;;9.70;7.37;;;;;;;;;;5055532;28;20312;-29
2023/04/10 00:56:37;;;;;;;9.80;7.20;;;;;;;;;;5069294;28;20209;-33
2023/04/10 00:59:04;;;;;;;8.63;6.43;;;;;;;;;;5070035;28;20202;-32
2023/04/10 01:01:31;;;;;;;8.70;6.43;;;;;;;;;;5061328;28;20212;-31
2023/04/10 01:04:00;;;;;;;9.93;7.07;;;;;;;;;;5063613;28;20654;-28
2023/04/10 01:06:31;;;;;;;10.33;7.27;;;;;;;;;;5072601;28;20288;-32
2023/04/10 01:09:02;;;;;;;9.80;6.77;;;;;;;;;;5071599;28;20204;-32
2023/04/10 01:11:39;;;;;;;9.37;6.27;;;;;;;;;;5064973;28;20222;-30
2023/04/10 01:14:12;;;;;;;8.67;6.30;;;;;;;;;;5075010;28;20708;-33
2023/04/10 01:16:42;;;;;;;10.47;6.83;;;;;;;;;;5065798;28;20593;-33
2023/04/10 01:19:15;;;;;;;7.30;6.00;;;;;;;;;;5063744;28;20201;-33
2023/04/10 01:21:43;;;;;;;8.23;5.70;;;;;;;;;;5055309;28;20198;-34
2023/04/10 01:24:25;;;;;;;9.17;6.63;;;;;;;;;;5056914;28;20239;-33
2023/04/10 01:27:10;;;;;;;9.47;6.47;;;;;;;;;;5063316;28;20202;-31
2023/04/10 01:29:42;;;;;;;7.97;5.73;;;;;;;;;;5071841;28;20209;-30
2023/04/10 01:32:12;;;;;;;9.80;6.57;;;;;;;;;;5062299;28;20224;-33
2023/04/10 01:34:41;;;;;;;8.37;5.73;;;;;;;;;;5061709;28;20226;-33
2023/04/10 01:37:09;;;;;;;7.37;5.67;;;;;;;;;;5072522;28;20288;-33
2023/04/10 01:39:38;;;;;;;8.10;5.10;;;;;;;;;;5068956;28;20202;-32
2023/04/10 01:42:06;;;;;;;6.97;5.40;;;;;;;;;;5059574;28;20198;-30
2023/04/10 01:44:35;;;;;;;7.77;6.17;;;;;;;;;;5063124;28;20309;-31
2023/04/10 01:47:06;;;;;;;8.20;6.10;;;;;;;;;;5059218;28;20293;-31
2023/04/10 01:49:33;;;;;;;8.13;5.73;;;;;;;;;;5064258;28;20292;-32
2023/04/10 01:52:01;;;;;;;8.50;6.30;;;;;;;;;;5073718;28;20312;-33
2023/04/10 01:54:28;;;;;;;7.00;5.73;;;;;;;;;;5060772;28;20217;-31
2023/04/10 01:56:56;;;;;;;7.87;6.07;;;;;;;;;;5062477;28;20289;-29
2023/04/10 01:59:23;;;;;;;6.37;5.77;;;;;;;;;;5070586;28;20216;-30
2023/04/10 02:01:56;;;;;;;8.07;5.73;;;;;;;;;;5066868;28;20472;-30
2023/04/10 02:04:25;;;;;;;8.73;6.10;;;;;;;;;;5066046;28;20225;-32
2023/04/10 02:06:57;;;;;;;7.33;5.53;;;;;;;;;;5054800;28;20210;-31
2023/04/10 02:09:29;;;;;;;7.47;5.53;;;;;;;;;;5054105;28;20182;-32
2023/04/10 02:12:00;;;;;;;6.63;5.13;;;;;;;;;;5053483;28;20574;-33
2023/04/10 02:14:28;;;;;;;8.13;5.53;;;;;;;;;;5061007;28;20225;-33
2023/04/10 02:16:56;;;;;;;10.10;6.33;;;;;;;;;;5052005;28;20206;-34
2023/04/10 02:19:26;;;;;;;8.53;5.60;;;;;;;;;;5068160;28;20212;-31
2023/04/10 02:21:53;;;;;;;7.70;5.90;;;;;;;;;;5051474;28;20202;-29
2023/04/10 02:24:22;;;;;;;8.57;5.90;;;;;;;;;;5051505;28;20289;-33
2023/04/10 02:26:50;;;;;;;7.50;5.77;;;;;;;;;;5058395;28;20205;-33
2023/04/10 02:29:18;;;;;;;7.30;5.80;;;;;;;;;;5065961;28;20217;-32
2023/04/10 02:31:45;;;;;;;7.43;5.60;;;;;;;;;;5061022;28;20224;-32
2023/04/10 02:34:13;;;;;;;7.33;5.10;;;;;;;;;;5062672;28;20225;-29
2023/04/10 02:36:41;;;;;;;7.80;5.60;;;;;;;;;;5058756;28;20212;-31
2023/04/10 02:39:08;;;;;;;7.60;5.80;;;;;;;;;;5050189;28;20213;-33
2023/04/10 02:41:35;;;;;;;8.20;6.10;;;;;;;;;;5061587;28;20197;-33
2023/04/10 02:44:02;;;;;;;7.27;5.87;;;;;;;;;;5065882;28;20219;-34
2023/04/10 02:46:30;;;;;;;8.73;5.80;;;;;;;;;;5063049;28;20213;-32
2023/04/10 02:48:57;;;;;;;6.70;5.03;;;;;;;;;;5070097;28;20284;-34
2023/04/10 02:51:24;;;;;;;6.13;5.03;;;;;;;;;;5053819;28;20236;-30
2023/04/10 02:53:53;;;;;;;8.93;5.70;;;;;;;;;;5050825;28;20241;-32
2023/04/10 02:56:20;;;;;;;7.93;5.53;;;;;;;;;;5053578;28;20199;-32
2023/04/10 02:58:47;;;;;;;8.00;5.87;;;;;;;;;;5061698;28;20224;-29
2023/04/10 03:01:15;;;;;;;8.50;5.77;;;;;;;;;;5061934;28;20205;-31
2023/04/10 03:03:42;;;;;;;6.33;5.10;;;;;;;;;;5051644;28;20223;-34
2023/04/10 03:06:11;;;;;;;8.90;6.43;;;;;;;;;;5057652;28;20205;-30
2023/04/10 03:08:38;;;;;;;6.00;4.87;;;;;;;;;;5070646;28;20216;-30
2023/04/10 03:11:08;;;;;;;10.33;5.97;;;;;;;;;;5063049;28;20432;-33
2023/04/10 03:13:35;;;;;;;8.77;5.63;;;;;;;;;;5061523;28;20398;-34
2023/04/10 03:16:02;;;;;;;7.57;5.50;;;;;;;;;;5063241;28;20288;-32
2023/04/10 03:18:30;;;;;;;8.40;5.97;;;;;;;;;;5061557;28;20205;-32
2023/04/10 03:20:57;;;;;;;7.23;6.03;;;;;;;;;;5060251;28;20278;-32
2023/04/10 03:23:25;;;;;;;8.20;5.50;;;;;;;;;;5053194;28;20240;-33
2023/04/10 03:25:53;;;;;;;7.27;5.07;;;;;;;;;;5054306;28;20214;-30
2023/04/10 03:28:22;;;;;;;7.70;5.93;;;;;;;;;;5052929;28;20233;-29
2023/04/10 03:30:50;;;;;;;7.83;5.63;;;;;;;;;;5054497;28;20568;-35
2023/04/10 03:33:17;;;;;;;7.30;5.40;;;;;;;;;;5063624;28;20659;-32
2023/04/10 03:35:46;;;;;;;8.73;5.77;;;;;;;;;;5060946;28;20205;-31
2023/04/10 03:38:17;;;;;;;6.90;5.10;;;;;;;;;;5072803;28;20225;-31
2023/04/10 03:40:44;;;;;;;7.57;5.97;;;;;;;;;;5060260;28;20206;-32
2023/04/10 03:43:11;;;;;;;7.67;5.77;;;;;;;;;;5059216;28;20612;-31
2023/04/10 03:45:40;;;;;;;10.90;6.03;;;;;;;;;;5051836;28;20213;-33
2023/04/10 03:48:07;;;;;;;7.17;5.13;;;;;;;;;;5053367;28;20242;-33
2023/04/10 03:50:34;;;;;;;8.00;5.67;;;;;;;;;;5051661;28;20202;-31
2023/04/10 03:53:01;;;;;;;7.67;5.50;;;;;;;;;;5062814;28;20688;-33
2023/04/10 03:55:28;;;;;;;7.43;5.70;;;;;;;;;;5067202;28;20313;-33
2023/04/10 03:57:56;;;;;;;7.27;5.50;;;;;;;;;;5052320;28;20289;-30
2023/04/10 04:00:23;;;;;;;7.27;5.20;;;;;;;;;;5057688;28;20214;-32
2023/04/10 04:02:52;;;;;;;7.13;5.30;;;;;;;;;;5054958;28;20218;-33
2023/04/10 04:05:20;;;;;;;7.67;4.80;;;;;;;;;;5052595;28;20266;-33
2023/04/10 04:07:47;;;;;;;7.60;5.30;;;;;;;;;;5052807;28;20206;-31
2023/04/10 04:10:14;;;;;;;8.07;5.90;;;;;;;;;;5053356;28;20202;-33
2023/04/10 04:12:41;;;;;;;9.20;4.80;;;;;;;;;;5063386;28;20675;-33
2023/04/10 04:15:09;;;;;;;6.77;5.10;;;;;;;;;;5072731;28;20296;-30
2023/04/10 04:17:36;;;;;;;6.40;4.63;;;;;;;;;;5055849;28;20551;-33
2023/04/10 04:20:05;;;;;;;6.63;5.33;;;;;;;;;;5058786;28;20212;-31
2023/04/10 04:22:32;;;;;;;6.50;4.93;;;;;;;;;;5073957;28;20212;-38
2023/04/10 04:24:59;;;;;;;8.33;5.10;;;;;;;;;;5062141;28;20289;-35
2023/04/10 04:27:27;;;;;;;6.43;4.80;;;;;;;;;;5066101;28;20239;-36
2023/04/10 04:29:54;;;;;;;7.63;5.33;;;;;;;;;;5075343;28;20759;-33
2023/04/10 04:32:21;;;;;;;7.23;5.13;;;;;;;;;;5061499;28;20914;-34
2023/04/10 04:34:48;;;;;;;5.97;5.00;;;;;;;;;;5064338;28;20218;-31
2023/04/10 04:37:16;;;;;;;7.20;5.10;;;;;;;;;;5056545;28;20269;-35
2023/04/10 04:39:44;;;;;;;7.60;5.73;;;;;;;;;;5054592;28;20209;-29
2023/04/10 04:42:11;;;;;;;6.97;5.10;;;;;;;;;;5065704;28;20557;-30
2023/04/10 04:44:38;;;;;;;7.73;5.40;;;;;;;;;;5065944;28;20228;-31
2023/04/10 04:47:05;;;;;;;7.40;5.30;;;;;;;;;;5066771;28;20197;-30
2023/04/10 04:49:32;;;;;;;7.20;5.20;;;;;;;;;;5067279;28;20206;-31
2023/04/10 04:51:59;;;;;;;8.73;5.73;;;;;;;;;;5076280;28;20213;-28
2023/04/10 04:54:28;;;;;;;7.50;5.33;;;;;;;;;;5070747;28;20225;-30
2023/04/10 04:56:55;;;;;;;7.20;5.50;;;;;;;;;;5067371;28;20655;-30
2023/04/10 04:59:22;;;;;;;8.03;5.33;;;;;;;;;;5059994;28;20194;-32
2023/04/10 05:01:50;;;;;;;7.03;5.07;;;;;;;;;;5061800;28;20233;-28
2023/04/10 05:04:17;;;;;;;7.50;5.00;;;;;;;;;;5075122;28;20312;-32
2023/04/10 05:06:44;;;;;;;8.83;5.00;;;;;;;;;;5074752;28;20197;-30
2023/04/10 05:09:11;;;;;;;7.03;4.70;;;;;;;;;;5061164;28;20197;-33
2023/04/10 05:11:40;;;;;;;5.30;4.77;;;;;;;;;;5065839;28;20297;-32
2023/04/10 05:14:07;;;;;;;7.73;5.17;;;;;;;;;;5061946;28;20261;-29
2023/04/10 05:16:34;;;;;;;6.17;4.57;;;;;;;;;;5064521;28;20212;-33
2023/04/10 05:19:01;;;;;;;10.17;5.03;;;;;;;;;;5074102;28;20278;-33
2023/04/10 05:21:28;;;;;;;8.50;5.00;;;;;;;;;;5057945;28;20224;-32
2023/04/10 05:23:58;;;;;;;7.37;6.00;;;;;;;;;;5054196;28;20230;-32
2023/04/10 05:26:26;;;;;;;9.37;6.37;;;;;;;;;;5067868;28;20237;-31
2023/04/10 05:31:29;;;;;;;6.33;5.30;;;;;;;;;;5090027;28;20212;-31
2023/04/10 05:34:07;;;;;;;7.17;5.40;;;;;;;;;;5074487;28;20224;-30
2023/04/10 05:36:35;;;;;;;6.90;5.57;;;;;;;;;;5055039;28;20208;-35
2023/04/10 05:39:05;;;;;;;7.13;5.53;;;;;;;;;;5053526;28;20275;-34
2023/04/10 05:41:32;;;;;;;7.03;6.13;;;;;;;;;;5063342;28;20251;-36
2023/04/10 05:43:59;;;;;;;7.27;5.77;;;;;;;;;;5059021;28;20222;-35
2023/04/10 05:46:26;;;;;;;7.53;5.30;;;;;;;;;;5066562;28;20203;-35
2023/04/10 05:48:55;;;;;;;9.07;5.77;;;;;;;;;;5065407;28;20201;-35
2023/04/10 05:51:22;;;;;;;6.90;5.47;;;;;;;;;;5071033;28;20208;-33
2023/04/10 05:53:49;;;;;;;7.47;6.00;;;;;;;;;;5074091;28;20233;-37
2023/04/10 05:56:16;;;;;;;8.27;5.20;;;;;;;;;;5064621;28;20203;-34
2023/04/10 05:58:44;;;;;;;6.70;4.90;;;;;;;;;;5056709;28;20206;-35
2023/04/10 06:01:12;;;;;;;5.70;4.87;;;;;;;;;;5070550;28;20300;-34
2023/04/10 06:03:39;;;;;;;7.40;5.20;;;;;;;;;;5063105;28;20222;-38
2023/04/10 06:06:08;;;;;;;6.10;5.30;;;;;;;;;;5054111;28;20202;-39
2023/04/10 06:08:35;;;;;;;6.90;5.80;;;;;;;;;;5059734;28;20309;-33
2023/04/10 06:11:02;;;;;;;7.80;5.53;;;;;;;;;;5067968;28;20233;-33
2023/04/10 06:13:31;;;;;;;7.17;6.43;;;;;;;;;;5053504;28;20261;-36
2023/04/10 06:16:05;;;;;;;8.10;6.07;;;;;;;;;;5056711;28;20201;-33
2023/04/10 06:18:32;;;;;;;5.17;4.57;;;;;;;;;;5064134;28;20208;-34
2023/04/10 06:21:00;;;;;;;6.87;5.33;;;;;;;;;;5066996;28;20216;-34
2023/04/10 06:23:29;;;;;;;6.50;5.30;;;;;;;;;;5074048;28;20245;-39
2023/04/10 06:25:56;;;;;;;7.17;5.60;;;;;;;;;;5072252;28;20205;-34
2023/04/10 06:28:23;;;;;;;9.00;5.90;;;;;;;;;;5071272;28;20288;-30
2023/04/10 06:30:50;;;;;;;5.97;4.97;;;;;;;;;;5072063;28;20206;-37
2023/04/10 06:33:18;;;;;;;7.33;5.40;;;;;;;;;;5058803;28;20229;-34
2023/04/10 06:35:45;;;;;;;5.97;4.97;;;;;;;;;;5073719;28;20212;-37
2023/04/10 06:38:12;;;;;;;6.20;5.10;;;;;;;;;;5073334;28;20295;-35
2023/04/10 06:40:41;;;;;;;6.10;5.17;;;;;;;;;;5066108;28;20212;-37
2023/04/10 06:43:08;;;;;;;7.27;5.20;;;;;;;;;;5066939;28;20222;-32
2023/04/10 06:45:35;;;;;;;5.10;4.27;;;;;;;;;;5066792;28;20205;-33
2023/04/10 06:48:02;;;;;;;6.17;4.70;;;;;;;;;;5073155;28;20198;-31
2023/04/10 06:50:29;;;;;;;5.80;4.80;;;;;;;;;;5055902;28;20338;-35
2023/04/10 06:52:58;;;;;;;5.50;4.70;;;;;;;;;;5053477;28;20234;-35
2023/04/10 06:55:25;;;;;;;5.93;4.20;;;;;;;;;;5060360;28;20239;-34
2023/04/10 06:57:55;;;;;;;5.87;4.53;;;;;;;;;;5065844;28;20206;-40
2023/04/10 07:00:24;;;;;;;6.27;4.60;;;;;;;;;;5057046;28;20197;-34
2023/04/10 07:02:52;;;;;;;5.57;4.53;;;;;;;;;;5072642;28;20225;-35
2023/04/10 07:05:19;;;;;;;4.60;4.17;;;;;;;;;;5064841;28;20199;-36
2023/04/10 07:07:46;;;;;;;4.17;3.77;;;;;;;;;;5073336;28;20205;-35
2023/04/10 07:10:13;;;;;;;5.03;4.00;;;;;;;;;;5071995;28;20217;-34
2023/04/10 07:12:40;;;;;;;4.70;4.27;;;;;;;;;;5070343;28;20205;-39
2023/04/10 07:15:11;;;;;;;4.53;3.80;;;;;;;;;;5071051;28;20225;-40
2023/04/10 07:17:38;;;;;;;4.53;4.03;;;;;;;;;;5065149;28;20211;-33
2023/04/10 07:20:06;;;;;;;4.97;4.47;;;;;;;;;;5068451;28;20201;-36
2023/04/10 07:22:33;;;;;;;4.63;4.10;;;;;;;;;;5072307;28;20210;-35
2023/04/10 07:25:00;;;;;;;6.10;4.30;;;;;;;;;;5072245;28;20252;-35
2023/04/10 07:27:28;;;;;;;4.23;3.83;;;;;;;;;;5068730;28;20203;-37
2023/04/10 07:29:56;;;;;;;5.30;4.00;;;;;;;;;;5068170;28;20210;-34
2023/04/10 07:32:24;;;;;;;5.60;4.40;;;;;;;;;;5068371;28;20259;-37
2023/04/10 07:34:51;;;;;;;4.43;4.03;;;;;;;;;;5058576;28;20628;-36
2023/04/10 07:37:19;;;;;;;3.90;3.50;;;;;;;;;;5072480;28;20207;-33
2023/04/10 07:39:46;;;;;;;4.23;3.50;;;;;;;;;;5068375;28;20198;-31
2023/04/10 07:42:13;;;;;;;4.53;4.00;;;;;;;;;;5070497;28;20210;-33
2023/04/10 07:44:40;;;;;;;4.13;3.73;;;;;;;;;;5064072;28;20222;-39
2023/04/10 07:47:07;;;;;;;4.87;4.00;;;;;;;;;;5068232;28;20293;-37
2023/04/10 07:49:36;;;;;;;4.10;3.70;;;;;;;;;;5063953;28;20221;-38
2023/04/10 07:52:03;;;;;;;6.17;4.23;;;;;;;;;;5072631;28;20201;-34
2023/04/10 07:54:33;;;;;;;4.33;3.87;;;;;;;;;;5073002;28;20229;-37
2023/04/10 07:57:00;;;;;;;3.67;3.27;;;;;;;;;;5064237;28;20198;-34
2023/04/10 07:59:27;;;;;;;4.50;4.10;;;;;;;;;;5054540;28;20209;-39
2023/04/10 08:01:54;;;;;;;4.53;3.63;;;;;;;;;;5065630;28;20213;-35
2023/04/10 08:04:21;;;;;;;3.73;3.43;;;;;;;;;;5069260;28;20221;-37
2023/04/10 08:06:50;;;;;;;4.13;3.73;;;;;;;;;;5072854;28;20201;-39
2023/04/10 08:09:17;;;;;;;3.93;3.60;;;;;;;;;;5070816;28;20201;-35
2023/04/10 08:11:44;;;;;;;3.73;3.33;;;;;;;;;;5062122;28;20208;-40
2023/04/10 08:14:12;;;;;;;4.13;3.63;;;;;;;;;;5067376;28;20322;-37
2023/04/10 08:16:39;;;;;;;3.50;3.20;;;;;;;;;;5066934;28;20216;-39
2023/04/10 08:19:06;;;;;;;3.70;3.40;;;;;;;;;;5066584;28;20255;-37
2023/04/10 08:21:33;;;;;;;4.73;3.60;;;;;;;;;;5072016;28;20283;-40
2023/04/10 08:24:02;;;;;;;4.67;3.53;;;;;;;;;;5072389;28;20229;-40
2023/04/10 08:26:30;;;;;;;3.70;3.40;;;;;;;;;;5063479;28;20209;-35
2023/04/10 08:28:58;;;;;;;3.90;3.50;;;;;;;;;;5052061;28;20196;-38
2023/04/10 08:31:26;;;;;;;4.20;3.80;;;;;;;;;;5059645;28;20213;-36
2023/04/10 08:33:53;;;;;;;3.90;3.60;;;;;;;;;;5054213;28;20312;-33
2023/04/10 08:36:20;;;;;;;4.07;3.67;;;;;;;;;;5065593;28;20194;-39
2023/04/10 08:38:48;;;;;;;3.90;3.50;;;;;;;;;;5056386;28;20265;-37
2023/04/10 08:41:17;;;;;;;3.47;2.90;;;;;;;;;;5069675;28;20212;-38
2023/04/10 08:43:45;;;;;;;4.03;3.33;;;;;;;;;;5057305;28;20233;-37
2023/04/10 08:46:13;;;;;;;3.57;3.20;;;;;;;;;;5057927;28;20205;-35
2023/04/10 08:48:43;;;;;;;3.43;3.13;;;;;;;;;;5060775;28;20297;-40
2023/04/10 08:51:14;;;;;;;3.50;3.20;;;;;;;;;;5053424;28;20194;-34
2023/04/10 08:53:44;;;;;;;4.30;3.53;;;;;;;;;;5058813;28;20274;-36
2023/04/10 08:56:13;;;;;;;3.57;3.10;;;;;;;;;;5067359;28;20213;-38
2023/04/10 08:58:41;;;;;;;3.73;3.43;;;;;;;;;;5060363;28;20271;-39
2023/04/10 09:01:09;;;;;;;4.00;3.60;;;;;;;;;;5057839;28;20251;-43
2023/04/10 09:03:36;;;;;;;3.40;3.10;;;;;;;;;;5061342;28;20229;-36
2023/04/10 09:06:04;;;;;;;4.00;3.60;;;;;;;;;;5066628;28;20212;-40
2023/04/10 09:08:31;;;;;;;3.40;3.10;;;;;;;;;;5073506;28;20288;-37
2023/04/10 09:10:58;;;;;;;4.57;2.80;;;;;;;;;;5069025;28;20206;-36
2023/04/10 09:13:40;;;;;;;4.10;3.30;;;;;;;;;;5071157;28;20221;-33
2023/04/10 09:16:09;;;;;;;4.13;3.30;;;;;;;;;;5058922;28;20210;-37
2023/04/10 09:18:46;;;;;;;3.63;3.33;;;;;;;;;;5065834;28;20250;-35
2023/04/10 09:21:14;;;;;;;3.07;2.73;;;;;;;;;;5057251;28;20232;-36
2023/04/10 09:23:43;;;;;;;5.37;2.43;;;;;;;;;;5073911;28;20219;-41
2023/04/10 09:26:23;;;;;;;5.23;3.07;;;;;;;;;;5073877;28;20209;-33
2023/04/10 09:28:57;;;;;;;3.27;2.97;;;;;;;;;;5065957;28;20236;-34
2023/04/10 09:31:29;;;;;;;3.03;2.83;;;;;;;;;;5060513;28;20210;-35
2023/04/10 09:34:07;;;;;;;2.80;2.53;;;;;;;;;;5065330;28;20526;-42
2023/04/10 09:36:34;;;;;;;2.63;2.43;;;;;;;;;;5061223;28;20196;-35
2023/04/10 09:39:01;;;;;;;3.60;2.90;;;;;;;;;;5070019;28;20220;-35
2023/04/10 09:41:29;;;;;;;3.00;2.80;;;;;;;;;;5074266;28;20216;-37
2023/04/10 09:44:06;;;;;;;2.27;2.03;;;;;;;;;;5058307;28;20222;-33
2023/04/10 09:46:35;;;;;;;3.37;2.40;;;;;;;;;;5060716;28;20208;-30
2023/04/10 09:49:04;;;;;;;2.37;2.17;;;;;;;;;;5070768;28;20205;-37
2023/04/10 09:51:32;;;;;;;2.00;1.90;;;;;;;;;;5068218;28;20235;-37
2023/04/10 09:54:00;;;;;;;2.10;1.90;;;;;;;;;;5074043;28;20226;-40
2023/04/10 09:56:27;;;;;;;1.90;1.80;;;;;;;;;;5067611;28;20213;-33
2023/04/10 09:58:57;;;;;;;2.20;2.00;;;;;;;;;;5059328;28;20205;-36
2023/04/10 10:01:24;;;;;;;1.80;1.70;;;;;;;;;;5067658;28;20208;-34
2023/04/10 10:03:54;;;;;;;1.60;1.50;;;;;;;;;;5066334;28;20227;-35
2023/04/10 10:06:22;;;;;;;2.00;1.90;;;;;;;;;;5070004;28;20212;-34
2023/04/10 10:08:49;;;;;;;1.77;1.67;;;;;;;;;;5071180;28;20208;-34
2023/04/10 10:11:18;;;;;;;2.10;1.90;;;;;;;;;;5071593;28;20205;-37
2023/04/10 10:13:48;;;;;;;1.80;1.70;;;;;;;;;;5062038;28;20228;-35
2023/04/10 10:16:16;;;;;;;2.40;2.17;;;;;;;;;;5058925;28;20201;-34
2023/04/10 10:18:45;;;;;;;2.33;2.13;;;;;;;;;;5071394;28;20212;-32
2023/04/10 10:21:14;;;;;;;2.00;1.83;;;;;;;;;;5058342;28;20209;-38
2023/04/10 10:23:43;;;;;;;1.90;1.80;;;;;;;;;;5071529;28;20223;-32
2023/04/10 10:26:10;;;;;;;1.70;1.60;;;;;;;;;;5072140;28;20197;-34
2023/04/10 10:28:38;;;;;;;1.87;1.77;;;;;;;;;;5062720;28;20202;-32
2023/04/10 10:31:06;;;;;;;2.07;1.80;;;;;;;;;;5058685;28;20303;-34
2023/04/10 10:33:36;;;;;;;1.70;1.60;;;;;;;;;;5056841;28;20233;-38
2023/04/10 10:36:04;;;;;;;1.90;1.80;;;;;;;;;;5067739;28;20218;-39
2023/04/10 10:38:33;;;;;;;1.70;1.60;;;;;;;;;;5070317;28;20216;-36
2023/04/10 10:41:03;;;;;;;2.17;1.97;;;;;;;;;;5059980;28;20213;-38
2023/04/10 10:43:36;;;;;;;2.00;1.90;;;;;;;;;;5064216;28;20256;-34
2023/04/10 10:46:05;;;;;;;1.90;1.70;;;;;;;;;;5070504;28;20216;-33
2023/04/10 10:48:32;;;;;;;2.13;2.00;;;;;;;;;;5062948;28;20218;-30
2023/04/10 10:51:00;;;;;;;1.70;1.60;;;;;;;;;;5066889;28;20218;-37
2023/04/10 10:53:39;;;;;;;1.80;1.70;;;;;;;;;;5072222;28;20221;-37
2023/04/10 10:56:25;;;;;;;1.80;1.70;;;;;;;;;;5070186;28;20225;-33
2023/04/10 10:58:54;;;;;;;1.60;1.50;;;;;;;;;;5061001;28;20198;-39
2023/04/10 11:01:21;;;;;;;1.53;1.43;;;;;;;;;;5068399;28;20205;-39
2023/04/10 11:03:49;;;;;;;1.60;1.50;;;;;;;;;;5056334;28;20248;-39
2023/04/10 11:06:18;;;;;;;1.70;1.60;;;;;;;;;;5072796;28;20203;-32
2023/04/10 11:08:47;;;;;;;1.83;1.73;;;;;;;;;;5070370;28;20470;-37
2023/04/10 11:11:18;;;;;;;1.47;1.37;;;;;;;;;;5065125;28;20217;-34
2023/04/10 11:14:16;;;;;;;1.80;1.70;;;;;;;;;;5060425;28;20514;-32
2023/04/10 11:16:45;;;;;;;2.10;1.90;;;;;;;;;;4997865;28;20259;-35
2023/04/10 11:19:12;;;;;;;1.80;1.67;;;;;;;;;;5049915;28;20201;-36
2023/04/10 11:21:58;;;;;;;1.70;1.60;;;;;;;;;;5071182;28;20297;-36
2023/04/10 11:24:27;;;;;;;1.90;1.80;;;;;;;;;;5059570;28;20223;-39
2023/04/10 11:26:55;;;;;;;2.07;1.97;;;;;;;;;;5062391;28;20205;-37
2023/04/10 11:42:21;;;;;;;1.37;1.27;;;;;;;;;;5036844;28;20204;-32
2023/04/10 11:44:48;;;;;;;1.50;1.40;;;;;;;;;;5031431;28;20229;-34
2023/04/10 11:47:15;;;;;;;1.20;1.20;;;;;;;;;;5027737;28;20293;-33
2023/04/10 11:49:42;;;;;;;1.50;1.40;;;;;;;;;;5033168;28;20640;-30
2023/04/10 11:52:09;;;;;;;1.40;1.30;;;;;;;;;;5033179;28;20237;-30
2023/04/10 11:54:37;;;;;;;1.27;1.17;;;;;;;;;;5019085;28;20226;-32
2023/04/10 11:57:05;;;;;;;1.57;1.47;;;;;;;;;;5029526;28;20347;-32
2023/04/10 11:59:34;;;;;;;1.47;1.23;;;;;;;;;;5030278;28;20206;-30
2023/04/10 12:02:06;;;;;;;1.23;1.13;;;;;;;;;;5024389;28;20291;-31
2023/04/10 12:04:33;;;;;;;2.60;1.20;;;;;;;;;;5031055;28;20226;-31
2023/04/10 12:07:00;;;;;;;1.10;1.10;;;;;;;;;;5043853;28;20570;-30
2023/04/10 12:09:28;;;;;;;1.20;1.20;;;;;;;;;;5026069;28;20584;-31
2023/04/10 12:11:58;;;;;;;1.33;1.23;;;;;;;;;;5026633;28;20209;-30
2023/04/10 12:14:30;;;;;;;1.50;1.40;;;;;;;;;;5030137;28;20414;-30
2023/04/10 12:16:59;;;;;;;1.50;1.40;;;;;;;;;;5018252;28;20207;-31
2023/04/10 12:19:26;;;;;;;1.50;1.40;;;;;;;;;;5029342;28;20207;-30
2023/04/10 12:21:53;;;;;;;1.50;1.40;;;;;;;;;;5029475;28;20197;-33
2023/04/10 12:24:39;;;;;;;1.80;1.70;;;;;;;;;;5018722;28;20227;-32
2023/04/10 12:27:06;;;;;;;1.83;1.73;;;;;;;;;;5029474;28;20207;-31
2023/04/10 12:29:33;;;;;;;1.57;1.40;;;;;;;;;;5028990;28;20566;-33
2023/04/10 12:32:09;;;;;;;2.10;1.77;;;;;;;;;;5022688;28;20297;-33
2023/04/10 12:34:37;;;;;;;1.33;1.23;;;;;;;;;;5028879;28;20241;-33
2023/04/10 12:37:04;;;;;;;1.90;1.80;;;;;;;;;;5029660;28;20690;-32
2023/04/10 12:39:31;;;;;;;1.60;1.50;;;;;;;;;;5026557;28;20538;-34
2023/04/10 12:42:11;;;;;;;1.33;1.20;;;;;;;;;;5062335;28;20607;-31
2023/04/10 12:44:50;;;;;;;1.50;1.40;;;;;;;;;;5073121;28;20310;-30
2023/04/10 12:47:18;;;;;;;1.40;1.30;;;;;;;;;;5067960;28;20216;-34
2023/04/10 12:50:00;;;;;;;1.33;1.23;;;;;;;;;;5080286;28;20224;-33
2023/04/10 12:52:27;;;;;;;1.20;1.20;;;;;;;;;;5062144;28;20197;-34
2023/04/10 12:54:55;;;;;;;1.10;1.10;;;;;;;;;;5067983;28;20205;-35
2023/04/10 12:57:27;;;;;;;1.50;1.40;;;;;;;;;;5075039;28;20674;-32
2023/04/10 12:59:54;;;;;;;3.50;1.37;;;;;;;;;;5068008;28;20205;-31
2023/04/10 13:02:23;;;;;;;1.60;1.50;;;;;;;;;;5068488;28;20520;-31
2023/04/10 13:04:50;;;;;;;1.43;1.33;;;;;;;;;;5064895;28;20197;-33
2023/04/10 13:07:17;;;;;;;1.47;1.13;;;;;;;;;;5087151;28;20233;-33
2023/04/10 13:09:45;;;;;;;1.57;1.47;;;;;;;;;;5081738;28;20211;-30
2023/04/10 13:12:12;;;;;;;1.30;1.20;;;;;;;;;;5061261;28;20206;-33
2023/04/10 13:14:40;;;;;;;1.10;1.10;;;;;;;;;;5072467;28;20220;-33
2023/04/10 13:17:07;;;;;;;1.30;1.20;;;;;;;;;;5060571;28;20699;-33
2023/04/10 13:19:35;;;;;;;1.17;1.07;;;;;;;;;;5072389;28;20241;-33
2023/04/10 13:22:03;;;;;;;1.00;1.00;;;;;;;;;;5083268;28;20193;-30
2023/04/10 13:24:30;;;;;;;1.30;1.20;;;;;;;;;;5076827;28;20248;-33
2023/04/10 13:26:58;;;;;;;1.20;1.20;;;;;;;;;;5065817;28;20205;-33
2023/04/10 13:29:25;;;;;;;1.20;1.10;;;;;;;;;;5068230;28;20263;-35
2023/04/10 13:31:52;;;;;;;1.23;1.20;;;;;;;;;;5063291;28;20296;-34
2023/04/10 13:34:20;;;;;;;1.13;1.13;;;;;;;;;;5080192;28;20231;-35
2023/04/10 13:36:48;;;;;;;1.40;1.17;;;;;;;;;;5081814;28;20232;-31
2023/04/10 13:39:17;;;;;;;2.07;1.60;;;;;;;;;;5076622;28;20231;-29
2023/04/10 13:41:44;;;;;;;1.20;1.20;;;;;;;;;;5068421;28;20225;-33
2023/04/10 13:44:11;;;;;;;1.10;1.10;;;;;;;;;;5072042;28;20217;-32
2023/04/10 13:46:38;;;;;;;1.13;1.03;;;;;;;;;;5064331;28;20248;-35
2023/04/10 13:49:05;;;;;;;1.40;1.30;;;;;;;;;;5074183;28;20567;-32
2023/04/10 13:51:33;;;;;;;1.00;1.00;;;;;;;;;;5089819;28;20205;-30
2023/04/10 13:54:01;;;;;;;1.30;1.20;;;;;;;;;;5093044;28;20220;-35
2023/04/10 13:56:29;;;;;;;1.27;1.17;;;;;;;;;;5073103;28;20228;-33
2023/04/10 13:58:56;;;;;;;1.23;1.13;;;;;;;;;;5071116;28;20198;-30
2023/04/10 14:01:23;;;;;;;1.20;1.10;;;;;;;;;;5065619;28;20197;-33
2023/04/10 14:03:50;;;;;;;0.90;0.90;;;;;;;;;;5070898;28;20222;-32
2023/04/10 14:06:17;;;;;;;0.90;0.90;;;;;;;;;;5071469;28;20220;-32
2023/04/10 14:08:44;;;;;;;1.63;1.40;;;;;;;;;;5065177;28;20202;-34
2023/04/10 14:11:13;;;;;;;1.90;1.13;;;;;;;;;;5069995;28;20205;-32
2023/04/10 14:13:40;;;;;;;1.10;1.07;;;;;;;;;;5073636;28;20596;-33
2023/04/10 14:16:08;;;;;;;1.10;1.10;;;;;;;;;;5077094;28;20717;-32
2023/04/10 14:18:37;;;;;;;0.93;0.93;;;;;;;;;;5073478;28;20207;-29
2023/04/10 14:21:04;;;;;;;1.37;1.00;;;;;;;;;;5073609;28;20209;-34
2023/04/10 14:23:31;;;;;;;1.00;1.00;;;;;;;;;;5084156;28;20319;-36
2023/04/10 14:25:59;;;;;;;1.17;1.10;;;;;;;;;;5068105;28;20206;-36
2023/04/10 14:28:28;;;;;;;1.07;1.00;;;;;;;;;;5074738;28;20677;-35
2023/04/10 14:30:55;;;;;;;1.30;1.20;;;;;;;;;;5066509;28;20205;-34
2023/04/10 14:33:22;;;;;;;1.10;1.00;;;;;;;;;;5070536;28;20699;-34
2023/04/10 14:35:49;;;;;;;1.37;1.23;;;;;;;;;;5072184;28;20308;-34
2023/04/10 14:38:16;;;;;;;1.13;1.03;;;;;;;;;;5080234;28;20193;-35
2023/04/10 14:40:47;;;;;;;1.53;1.40;;;;;;;;;;5065994;28;20682;-33
2023/04/10 14:43:14;;;;;;;1.00;1.00;;;;;;;;;;5062737;28;20217;-35
2023/04/10 14:45:43;;;;;;;1.20;1.10;;;;;;;;;;5065956;28;20208;-34
2023/04/10 14:48:11;;;;;;;1.30;1.10;;;;;;;;;;5074343;28;20208;-33
2023/04/10 14:50:38;;;;;;;1.00;1.00;;;;;;;;;;5074790;28;20274;-31
2023/04/10 14:53:08;;;;;;;1.10;1.10;;;;;;;;;;5070838;28;20228;-34
2023/04/10 14:55:35;;;;;;;0.97;0.97;;;;;;;;;;5068028;28;20225;-34
2023/04/10 14:58:05;;;;;;;1.23;1.13;;;;;;;;;;5064446;28;20201;-36
2023/04/10 15:00:33;;;;;;;1.00;1.00;;;;;;;;;;5067390;28;20580;-36
2023/04/10 15:03:01;;;;;;;1.20;1.10;;;;;;;;;;5063313;28;20225;-36
2023/04/10 15:05:28;;;;;;;1.43;1.33;;;;;;;;;;5070531;28;20204;-36